Time;durP1;ratioP1;P1;durP2;ratioP2;P2;SDS_P1;SDS_P2;PMS_P1;PMS_P2;Temp;Humidity;BMP_temperature;BMP_pressure;BME280_temperature;BME280_humidity;BME280_pressure;Samples;Min_cycle;Max_cycle;Signal;HPM_P1;HPM_P2
2022/05/12 00:00:52;;;;;;;5.50;4.63;;;;;;;19.00;98.79;95259.25;4975250;28;20219;-64
2022/05/12 00:03:18;;;;;;;5.93;4.70;;;;;;;18.97;98.91;95262.94;4975022;28;20188;-65
2022/05/12 00:05:44;;;;;;;6.53;4.80;;;;;;;18.93;98.83;95254.81;4976301;28;20235;-64
2022/05/12 00:08:11;;;;;;;7.97;5.00;;;;;;;18.91;99.36;95259.28;4976090;28;20218;-60
2022/05/12 00:10:37;;;;;;;5.50;5.00;;;;;;;18.86;100.00;95254.31;4975672;28;20192;-67
2022/05/12 00:13:03;;;;;;;5.47;4.97;;;;;;;18.82;100.00;95262.00;4975380;28;20295;-66
2022/05/12 00:15:31;;;;;;;8.50;5.03;;;;;;;18.77;100.00;95257.88;4975284;28;20196;-65
2022/05/12 00:17:58;;;;;;;6.57;4.60;;;;;;;18.73;100.00;95262.00;4975251;28;20216;-67
2022/05/12 00:20:24;;;;;;;6.83;5.20;;;;;;;18.67;100.00;95255.53;4975224;28;20199;-66
2022/05/12 00:22:50;;;;;;;6.33;5.07;;;;;;;18.64;100.00;95259.22;4975441;28;20188;-66
2022/05/12 00:25:19;;;;;;;5.57;5.07;;;;;;;18.58;100.00;95258.28;4975175;28;20191;-69
2022/05/12 00:27:44;;;;;;;6.70;4.50;;;;;;;18.54;100.00;95260.44;4975115;28;20212;-59
2022/05/12 00:30:11;;;;;;;6.27;4.63;;;;;;;18.51;100.00;95262.09;4973696;28;20189;-60
2022/05/12 00:32:43;;;;;;;6.33;5.40;;;;;;;18.49;100.00;95258.25;4975668;28;20238;-61
2022/05/12 00:35:10;;;;;;;5.73;4.93;;;;;;;18.44;100.00;95250.56;4975614;28;20270;-60
2022/05/12 00:37:36;;;;;;;6.63;5.00;;;;;;;18.37;100.00;95256.41;4974968;28;20193;-61
2022/05/12 00:40:02;;;;;;;5.23;4.73;;;;;;;18.31;100.00;95258.19;4975077;28;20200;-60
2022/05/12 00:42:27;;;;;;;6.93;4.80;;;;;;;18.31;100.00;95252.66;4975044;28;20224;-60
2022/05/12 00:44:52;;;;;;;7.03;4.93;;;;;;;18.30;100.00;95256.66;4974995;28;20192;-60
2022/05/12 00:47:18;;;;;;;5.10;4.60;;;;;;;18.30;100.00;95251.91;4974873;28;20224;-58
2022/05/12 00:49:45;;;;;;;5.57;5.07;;;;;;;18.30;100.00;95248.34;4975047;28;20193;-58
2022/05/12 00:52:21;;;;;;;8.23;4.93;;;;;;;18.30;100.00;95253.88;4974928;28;20192;-57
2022/05/12 00:54:49;;;;;;;6.53;4.57;;;;;;;18.30;100.00;95251.13;4974914;28;20192;-58
2022/05/12 00:57:20;;;;;;;4.90;4.33;;;;;;;18.32;100.00;95265.28;4990978;28;20219;-58
2022/05/12 00:59:47;;;;;;;5.03;4.40;;;;;;;18.27;100.00;95252.81;4974649;28;20200;-57
2022/05/12 01:02:17;;;;;;;6.20;4.60;;;;;;;18.24;100.00;95258.47;4991511;28;20192;-58
2022/05/12 01:04:44;;;;;;;7.97;4.57;;;;;;;18.25;100.00;95254.50;4974532;28;20196;-58
2022/05/12 01:07:10;;;;;;;7.50;5.63;;;;;;;18.22;100.00;95255.41;4974457;28;20208;-58
2022/05/12 01:09:36;;;;;;;7.77;4.87;;;;;;;18.19;100.00;95251.56;4974791;28;20279;-59
2022/05/12 01:12:02;;;;;;;7.37;5.40;;;;;;;18.18;100.00;95252.00;4974474;28;20195;-59
2022/05/12 01:14:27;;;;;;;6.83;4.50;;;;;;;18.14;100.00;95249.38;4974882;28;20196;-59
2022/05/12 01:16:59;;;;;;;6.43;5.07;;;;;;;18.12;100.00;95245.53;4974299;28;20247;-59
2022/05/12 01:19:33;;;;;;;5.33;4.83;;;;;;;18.12;100.00;95257.34;4974755;28;20243;-60
2022/05/12 01:22:00;;;;;;;6.23;4.90;;;;;;;18.05;100.00;95248.56;4975130;28;20215;-60
2022/05/12 01:24:32;;;;;;;111.00;26.13;;;;;;;18.04;100.00;95253.34;4974373;28;20200;-58
2022/05/12 01:27:18;;;;;;;7.80;4.93;;;;;;;18.00;100.00;95252.72;4974003;28;20212;-58
2022/05/12 01:29:43;;;;;;;6.23;4.73;;;;;;;17.98;100.00;95254.38;4975062;28;20184;-58
2022/05/12 01:32:08;;;;;;;6.40;5.60;;;;;;;17.94;100.00;95245.44;4974174;28;20198;-58
2022/05/12 01:34:34;;;;;;;7.53;6.37;;;;;;;17.88;100.00;95258.34;4974806;28;20202;-58
2022/05/12 01:36:59;;;;;;;8.23;7.43;;;;;;;17.86;100.00;95260.75;4974100;28;20192;-58
2022/05/12 01:39:24;;;;;;;9.50;5.37;;;;;;;17.82;100.00;95260.91;4990583;28;20184;-61
2022/05/12 01:41:50;;;;;;;7.13;6.43;;;;;;;17.76;100.00;95256.41;4974083;28;20196;-60
2022/05/12 01:44:15;;;;;;;11.17;6.10;;;;;;;17.73;100.00;95257.31;4974047;28;20200;-60
2022/05/12 01:46:40;;;;;;;8.17;7.00;;;;;;;17.67;100.00;95254.38;4973718;28;20219;-60
2022/05/12 01:49:06;;;;;;;9.33;5.60;;;;;;;17.62;100.00;95241.16;4973796;28;20181;-60
2022/05/12 01:51:35;;;;;;;7.13;5.07;;;;;;;17.60;100.00;95248.34;4974375;28;20260;-60
2022/05/12 01:54:00;;;;;;;7.87;5.10;;;;;;;17.56;100.00;95253.25;4973942;28;20211;-60
2022/05/12 01:56:26;;;;;;;5.90;5.30;;;;;;;17.54;100.00;95250.16;4973944;28;20192;-60
2022/05/12 01:58:51;;;;;;;97.60;18.43;;;;;;;17.55;100.00;95246.19;4973873;28;20224;-58
2022/05/12 02:01:17;;;;;;;6.10;5.27;;;;;;;17.58;100.00;95246.03;4974197;28;20228;-63
2022/05/12 02:03:42;;;;;;;964.83;446.67;;;;;;;17.59;100.00;95236.53;4974119;28;20279;-64
2022/05/12 02:06:07;;;;;;;341.00;125.30;;;;;;;17.63;100.00;95241.94;4974361;28;20192;-64
2022/05/12 02:08:33;;;;;;;5.73;5.23;;;;;;;17.65;100.00;95245.00;4973863;28;20330;-63
2022/05/12 02:10:58;;;;;;;36.57;33.00;;;;;;;17.67;100.00;95242.56;4974357;28;20192;-63
2022/05/12 02:13:26;;;;;;;852.10;414.30;;;;;;;17.66;100.00;95246.56;4973618;28;20211;-64
2022/05/12 02:15:53;;;;;;;7.53;7.10;;;;;;;17.72;100.00;95250.25;4973767;28;20192;-57
2022/05/12 02:18:20;;;;;;;10.20;9.50;;;;;;;17.71;100.00;95243.19;4973517;28;20282;-60
2022/05/12 02:20:46;;;;;;;25.30;24.10;;;;;;;17.77;100.00;95246.91;4974337;28;20283;-64
2022/05/12 02:23:11;;;;;;;1999.90;999.90;;;;;;;17.78;100.00;95251.97;4973426;28;20192;-65
2022/05/12 02:25:37;;;;;;;1999.90;999.90;;;;;;;17.75;100.00;95246.59;4973567;28;20224;-63
2022/05/12 02:28:02;;;;;;;1999.90;999.90;;;;;;;17.76;100.00;95246.13;4973290;28;20216;-63
2022/05/12 02:30:30;;;;;;;1999.90;999.90;;;;;;;17.82;100.00;95243.56;4973425;28;20302;-63
2022/05/12 02:32:56;;;;;;;1999.90;999.90;;;;;;;17.84;100.00;95258.44;4973528;28;20188;-63
2022/05/12 02:35:22;;;;;;;1999.90;999.90;;;;;;;17.84;100.00;95252.16;4973742;28;20249;-62
2022/05/12 02:37:48;;;;;;;1999.90;999.90;;;;;;;18.04;100.00;95249.78;4973390;28;20192;-63
2022/05/12 02:40:16;;;;;;;1999.90;999.90;;;;;;;18.04;100.00;95255.31;4973457;28;20223;-64
2022/05/12 02:42:42;;;;;;;1999.90;999.90;;;;;;;18.01;100.00;95250.69;4974530;28;20193;-63
2022/05/12 02:45:08;;;;;;;1999.90;999.90;;;;;;;18.03;100.00;95264.84;4973391;28;20281;-63
2022/05/12 02:47:33;;;;;;;1999.90;999.90;;;;;;;18.06;100.00;95269.47;4972934;28;20698;-63
2022/05/12 02:49:59;;;;;;;1999.90;999.90;;;;;;;18.07;100.00;95262.72;4973222;28;20287;-63
2022/05/12 02:52:24;;;;;;;1999.90;999.90;;;;;;;18.12;100.00;95267.63;4974079;28;20275;-63
2022/05/12 02:54:50;;;;;;;1999.90;999.90;;;;;;;18.12;100.00;95262.09;4977453;28;20200;-66
2022/05/12 02:57:15;;;;;;;1999.90;999.90;;;;;;;18.16;100.00;95263.50;4977099;28;20204;-60
2022/05/12 02:59:41;;;;;;;1999.90;999.90;;;;;;;18.21;100.00;95264.94;4977077;28;20193;-60
2022/05/12 03:02:06;;;;;;;1999.90;999.90;;;;;;;18.24;100.00;95272.28;4976316;28;20192;-60
2022/05/12 03:04:33;;;;;;;1999.90;999.90;;;;;;;18.27;100.00;95269.38;4976637;28;20204;-60
2022/05/12 03:06:58;;;;;;;1999.90;999.90;;;;;;;18.31;100.00;95272.00;4976247;28;20221;-60
2022/05/12 03:09:24;;;;;;;1999.90;999.90;;;;;;;18.37;100.00;95276.53;4976367;28;20291;-60
2022/05/12 03:11:49;;;;;;;1999.90;999.90;;;;;;;18.42;100.00;95280.66;4976320;28;20192;-57
2022/05/12 03:14:14;;;;;;;1999.90;999.90;;;;;;;18.44;100.00;95278.22;4976312;28;20279;-67
2022/05/12 03:16:40;;;;;;;1999.90;999.90;;;;;;;18.48;100.00;95284.38;4976096;28;20204;-67
2022/05/12 03:19:06;;;;;;;1999.90;999.90;;;;;;;18.49;100.00;95285.91;4975893;28;20196;-67
2022/05/12 03:21:31;;;;;;;1999.90;999.90;;;;;;;18.51;100.00;95283.47;4976104;28;20181;-67
2022/05/12 03:23:57;;;;;;;1999.90;999.90;;;;;;;18.52;100.00;95285.78;4975995;28;20212;-66
2022/05/12 03:26:23;;;;;;;1999.90;999.90;;;;;;;18.55;100.00;95298.72;4976087;28;20199;-67
2022/05/12 03:28:48;;;;;;;1999.90;999.90;;;;;;;18.57;100.00;95298.22;4976119;28;20185;-62
2022/05/12 03:31:14;;;;;;;1999.90;999.90;;;;;;;18.62;100.00;95295.63;4976032;28;20188;-59
2022/05/12 03:33:40;;;;;;;1999.90;999.90;;;;;;;18.65;100.00;95310.56;4976048;28;20184;-64
2022/05/12 03:36:09;;;;;;;1999.90;999.90;;;;;;;18.70;100.00;95301.66;4976397;28;20199;-63
2022/05/12 03:38:34;;;;;;;1999.90;999.90;;;;;;;18.79;100.00;95304.44;4975981;28;20189;-63
2022/05/12 03:41:00;;;;;;;1999.90;999.90;;;;;;;18.84;99.94;95317.69;4975928;28;20271;-63
2022/05/12 03:46:12;;;;;;;1999.90;999.90;;;;;;;18.99;98.56;95319.41;4977316;28;20191;-64
2022/05/12 03:48:39;;;;;;;1999.90;999.90;;;;;;;19.07;97.30;95325.41;4975679;28;20213;-68
2022/05/12 03:51:06;;;;;;;1999.90;999.90;;;;;;;19.11;96.38;95326.03;4976014;28;20192;-59
2022/05/12 03:53:31;;;;;;;1999.90;999.90;;;;;;;19.17;96.04;95329.72;4992265;28;20211;-59
2022/05/12 03:55:58;;;;;;;1999.90;999.90;;;;;;;19.21;95.13;95330.34;4975529;28;20184;-59
2022/05/12 03:58:24;;;;;;;1999.90;999.90;;;;;;;19.31;94.88;95341.00;4975532;28;20248;-59
2022/05/12 04:00:49;;;;;;;1999.90;999.90;;;;;;;19.38;94.41;95329.59;4975645;28;20212;-59
2022/05/12 04:03:15;;;;;;;1999.90;999.90;;;;;;;19.46;92.53;95341.16;4975127;28;20251;-61
2022/05/12 04:05:41;;;;;;;1999.90;999.90;;;;;;;19.51;91.99;95337.78;4975614;28;20192;-59
2022/05/12 04:08:07;;;;;;;1999.90;999.90;;;;;;;19.52;90.73;95350.38;4975290;28;20216;-61
2022/05/12 04:10:32;;;;;;;1999.90;999.90;;;;;;;19.52;91.69;95350.38;4975430;28;20195;-61
2022/05/12 04:12:58;;;;;;;1999.90;999.90;;;;;;;19.52;91.11;95355.91;4975521;28;20254;-61
2022/05/12 04:15:24;;;;;;;1999.90;999.90;;;;;;;19.64;90.68;95360.56;4975975;28;20189;-60
2022/05/12 04:18:04;;;;;;;1999.90;999.90;;;;;;;19.72;89.72;95359.00;4975343;28;20263;-61
2022/05/12 04:20:33;;;;;;;1999.90;999.90;;;;;;;19.81;89.05;95364.53;4975041;28;20188;-61
2022/05/12 04:22:58;;;;;;;1999.90;999.90;;;;;;;19.87;88.18;95371.00;4975235;28;20271;-61
2022/05/12 04:25:25;;;;;;;1999.90;999.90;;;;;;;20.01;87.27;95375.91;4975325;28;20188;-60
2022/05/12 04:27:51;;;;;;;1999.90;999.90;;;;;;;20.08;87.05;95381.16;4975172;28;20319;-59
2022/05/12 04:30:19;;;;;;;1999.90;999.90;;;;;;;20.10;86.07;95381.47;4975288;28;20208;-59
2022/05/12 04:32:44;;;;;;;1999.90;999.90;;;;;;;20.17;85.88;95378.38;4975159;28;20192;-59
2022/05/12 04:35:14;;;;;;;1999.90;999.90;;;;;;;20.30;84.65;95378.97;4975527;28;20180;-59
2022/05/12 04:37:45;;;;;;;1999.90;999.90;;;;;;;20.50;84.12;95379.22;4975814;28;20200;-59
2022/05/12 04:40:15;;;;;;;1999.90;999.90;;;;;;;20.77;82.53;95381.91;4974911;28;20188;-59
2022/05/12 04:42:40;;;;;;;1999.90;999.90;;;;;;;21.20;80.98;95389.72;4975238;28;20244;-65
2022/05/12 04:45:07;;;;;;;1999.90;999.90;;;;;;;21.64;79.18;95393.41;4975285;28;20206;-60
2022/05/12 04:47:34;;;;;;;1999.90;999.90;;;;;;;22.08;77.40;95404.69;4974546;28;20246;-59
2022/05/12 04:49:59;;;;;;;1999.90;999.90;;;;;;;22.33;74.34;95399.34;4974762;28;20281;-59
2022/05/12 04:52:26;;;;;;;1999.90;999.90;;;;;;;22.66;72.25;95415.13;4975098;28;20227;-60
2022/05/12 04:54:51;;;;;;;1999.90;999.90;;;;;;;23.24;68.78;95409.47;4974688;28;20238;-59
2022/05/12 04:57:16;;;;;;;1999.90;999.90;;;;;;;23.86;65.50;95407.00;4974796;28;20275;-61
2022/05/12 04:59:42;;;;;;;1999.90;999.90;;;;;;;24.16;62.85;95417.53;4974485;28;20192;-60
2022/05/12 05:02:07;;;;;;;1999.90;999.90;;;;;;;24.83;59.80;95411.34;4974657;28;20197;-61
2022/05/12 05:04:32;;;;;;;1999.90;999.90;;;;;;;24.71;59.62;95425.72;4974748;28;20188;-58
2022/05/12 05:06:58;;;;;;;1999.90;999.90;;;;;;;24.20;59.84;95431.28;4974206;28;20219;-58
2022/05/12 05:09:23;;;;;;;1999.90;999.90;;;;;;;24.09;60.02;95425.56;4975008;28;20195;-59
2022/05/12 05:11:49;;;;;;;1999.90;999.90;;;;;;;23.65;61.20;95436.16;4974873;28;20188;-58
2022/05/12 05:14:14;;;;;;;1999.90;999.90;;;;;;;23.74;60.89;95438.81;4974410;28;20200;-58
2022/05/12 05:16:39;;;;;;;1999.90;999.90;;;;;;;23.63;61.57;95447.03;4973848;28;20327;-58
2022/05/12 05:19:05;;;;;;;1999.90;999.90;;;;;;;23.51;62.14;95445.34;4974310;28;20203;-58
2022/05/12 05:21:30;;;;;;;1999.90;999.90;;;;;;;23.49;62.88;95459.00;4975278;28;20196;-63
2022/05/12 05:23:55;;;;;;;1999.90;999.90;;;;;;;23.35;62.97;95454.25;4974136;28;20188;-60
2022/05/12 05:26:21;;;;;;;1999.90;999.90;;;;;;;23.04;63.78;95462.31;4974223;28;20269;-61
2022/05/12 05:28:47;;;;;;;1999.90;999.90;;;;;;;22.96;64.83;95464.75;4974295;28;20176;-60
2022/05/12 05:31:12;;;;;;;1999.90;999.90;;;;;;;22.93;64.47;95467.72;4974147;28;20185;-60
2022/05/12 05:33:37;;;;;;;1999.90;999.90;;;;;;;23.02;64.58;95476.75;4974277;28;20204;-60
2022/05/12 05:36:03;;;;;;;1999.90;999.90;;;;;;;22.82;65.73;95478.66;4974371;28;20189;-60
2022/05/12 05:38:29;;;;;;;1999.90;999.90;;;;;;;23.04;65.26;95485.41;4974167;28;20196;-60
2022/05/12 05:40:54;;;;;;;1999.90;999.90;;;;;;;23.08;64.09;95490.78;4974573;28;20188;-62
2022/05/12 05:43:20;;;;;;;1999.90;999.90;;;;;;;23.14;63.71;95495.19;4975048;28;20181;-60
2022/05/12 05:45:46;;;;;;;1999.90;999.90;;;;;;;23.44;62.07;95495.94;4973664;28;20216;-60
2022/05/12 05:48:12;;;;;;;1999.90;999.90;;;;;;;23.27;62.75;95500.50;4974264;28;20208;-60
2022/05/12 05:53:27;;;;;;;1999.90;999.90;;;;;;;23.68;62.30;95504.91;4975442;28;20200;-60
2022/05/12 05:55:56;;;;;;;1999.90;999.90;;;;;;;24.34;59.83;95505.81;4973676;28;20188;-60
2022/05/12 05:58:23;;;;;;;1999.90;999.90;;;;;;;24.77;58.10;95513.16;4974779;28;20263;-66
2022/05/12 06:00:48;;;;;;;1999.90;999.90;;;;;;;24.75;57.42;95512.88;4973727;28;20232;-60
2022/05/12 06:03:14;;;;;;;1999.90;999.90;;;;;;;25.15;56.82;95512.75;4973897;28;20200;-59
2022/05/12 06:05:41;;;;;;;1999.90;999.90;;;;;;;25.27;55.61;95514.38;4974589;28;20191;-59
2022/05/12 06:08:09;;;;;;;1999.90;999.90;;;;;;;25.11;56.41;95517.81;4973387;28;20216;-60
2022/05/12 06:10:34;;;;;;;1999.90;999.90;;;;;;;25.56;54.13;95518.97;4973678;28;20192;-60
2022/05/12 06:13:00;;;;;;;1999.90;999.90;;;;;;;25.44;54.04;95518.13;4974141;28;20208;-59
2022/05/12 06:15:26;;;;;;;1999.90;999.90;;;;;;;24.97;55.09;95525.06;4973290;28;20188;-65
2022/05/12 06:17:51;;;;;;;1999.90;999.90;;;;;;;25.02;54.73;95523.59;4973513;28;20212;-60
2022/05/12 06:20:17;;;;;;;1999.90;999.90;;;;;;;24.80;55.80;95528.97;4973689;28;20188;-60
2022/05/12 06:22:43;;;;;;;1999.90;999.90;;;;;;;24.74;56.36;95525.31;4973143;28;20188;-61
2022/05/12 06:25:11;;;;;;;1999.90;999.90;;;;;;;24.84;56.13;95543.47;4973332;28;20180;-60
2022/05/12 06:27:37;;;;;;;1999.90;999.90;;;;;;;24.83;56.25;95536.34;4976396;28;20256;-60
2022/05/12 06:30:05;;;;;;;1999.90;999.90;;;;;;;24.58;56.76;95534.28;4977258;28;20188;-60
2022/05/12 06:32:30;;;;;;;1999.90;999.90;;;;;;;24.89;55.72;95535.16;4976773;28;20188;-60
2022/05/12 06:34:56;;;;;;;1999.90;999.90;;;;;;;24.75;55.64;95549.22;4976695;28;20180;-59
2022/05/12 06:37:22;;;;;;;1999.90;999.90;;;;;;;24.19;57.97;95544.19;4976857;28;20192;-61
2022/05/12 06:39:48;;;;;;;1999.90;999.90;;;;;;;24.23;58.29;95555.94;4976695;28;20189;-60
2022/05/12 06:42:13;;;;;;;1999.90;999.90;;;;;;;24.74;57.14;95550.47;4976755;28;20232;-60
2022/05/12 06:44:41;;;;;;;1999.90;999.90;;;;;;;25.64;53.13;95548.81;4976996;28;20183;-60
2022/05/12 06:47:08;;;;;;;1999.90;999.90;;;;;;;26.02;51.05;95548.31;4976443;28;20216;-60
2022/05/12 06:49:34;;;;;;;1999.90;999.90;;;;;;;26.71;51.19;95550.44;4976943;28;20195;-60
2022/05/12 06:52:00;;;;;;;1999.90;999.90;;;;;;;27.47;48.99;95553.91;4992650;28;20219;-60
2022/05/12 06:54:25;;;;;;;1999.90;999.90;;;;;;;28.32;45.26;95554.09;4976562;28;20191;-60
2022/05/12 06:56:50;;;;;;;1999.90;999.90;;;;;;;29.12;42.89;95544.28;4977179;28;20283;-60
2022/05/12 06:59:16;;;;;;;1999.90;999.90;;;;;;;30.03;41.35;95554.59;4976435;28;20263;-60
2022/05/12 07:01:41;;;;;;;1999.90;999.90;;;;;;;29.98;39.98;95546.19;4976566;28;20283;-60
2022/05/12 07:04:06;;;;;;;1999.90;999.90;;;;;;;28.75;42.59;95543.97;4977495;28;20215;-60
2022/05/12 07:06:32;;;;;;;1999.90;999.90;;;;;;;29.08;42.71;95546.63;4976202;28;20224;-61
2022/05/12 07:08:58;;;;;;;1999.90;999.90;;;;;;;28.85;42.67;95556.44;4976518;28;20180;-60
2022/05/12 07:11:23;;;;;;;1999.90;999.90;;;;;;;27.96;43.33;95562.34;4975972;28;20184;-60
2022/05/12 07:13:48;;;;;;;1999.90;999.90;;;;;;;27.32;44.60;95561.81;4976598;28;20180;-60
2022/05/12 07:16:14;;;;;;;1999.90;999.90;;;;;;;28.17;43.62;95563.56;4976096;28;20188;-59
2022/05/12 07:18:39;;;;;;;1999.90;999.90;;;;;;;30.02;40.82;95557.94;4976341;28;20184;-59
2022/05/12 07:26:36;;;;;;;1999.90;999.90;;;;;;;31.98;34.80;95572.09;4977568;28;20192;-60
2022/05/12 07:29:08;;;;;;;1999.90;999.90;;;;;;;31.74;36.06;95562.94;4975982;28;20196;-59
2022/05/12 07:31:33;;;;;;;1999.90;999.90;;;;;;;30.45;36.92;95570.06;4975780;28;20184;-59
2022/05/12 07:33:59;;;;;;;1999.90;999.90;;;;;;;31.53;35.56;95571.22;4975975;28;20275;-58
2022/05/12 07:36:27;;;;;;;1999.90;999.90;;;;;;;32.57;34.61;95563.03;4976132;28;20226;-59
2022/05/12 07:38:55;;;;;;;1999.90;999.90;;;;;;;32.60;33.60;95567.63;4975720;28;20189;-58
2022/05/12 07:41:21;;;;;;;1999.90;999.90;;;;;;;32.84;33.19;95578.72;4976780;28;20271;-59
2022/05/12 07:43:47;;;;;;;1999.90;999.90;;;;;;;33.09;33.53;95571.50;4975839;28;20216;-58
2022/05/12 07:46:16;;;;;;;1999.90;999.90;;;;;;;32.15;34.06;95566.13;4975842;28;20177;-58
2022/05/12 07:48:42;;;;;;;1999.90;999.90;;;;;;;31.61;35.09;95566.47;4975723;28;20212;-61
2022/05/12 07:51:08;;;;;;;1999.90;999.90;;;;;;;31.00;36.00;95569.41;4975622;28;20199;-58
2022/05/12 07:53:35;;;;;;;1999.90;999.90;;;;;;;32.20;34.43;95566.03;4975509;28;20189;-58
2022/05/12 07:56:01;;;;;;;1999.90;999.90;;;;;;;33.29;32.49;95579.28;4975703;28;20212;-58
2022/05/12 07:58:27;;;;;;;1999.90;999.90;;;;;;;33.40;32.77;95573.41;4975398;28;20286;-59
2022/05/12 08:00:53;;;;;;;1999.90;999.90;;;;;;;33.68;32.68;95572.75;4975585;28;20188;-58
2022/05/12 08:03:20;;;;;;;1999.90;999.90;;;;;;;33.46;32.22;95582.53;4975482;28;20193;-58
2022/05/12 08:05:45;;;;;;;1999.90;999.90;;;;;;;33.85;31.71;95573.13;4975620;28;20185;-60
2022/05/12 08:08:11;;;;;;;1999.90;999.90;;;;;;;32.99;32.37;95578.91;4975343;28;20262;-59
2022/05/12 08:10:37;;;;;;;1999.90;999.90;;;;;;;30.92;35.08;95585.44;4975518;28;20184;-58
2022/05/12 08:13:02;;;;;;;1999.90;999.90;;;;;;;32.15;34.23;95575.34;4975221;28;20212;-59
2022/05/12 08:15:28;;;;;;;1999.90;999.90;;;;;;;32.50;34.45;95591.22;4975360;28;20191;-58
2022/05/12 08:17:54;;;;;;;1999.90;999.90;;;;;;;31.60;35.35;95581.16;4975205;28;20215;-58
2022/05/12 08:20:20;;;;;;;1999.90;999.90;;;;;;;32.06;34.41;95584.28;4975550;28;20184;-60
2022/05/12 08:22:46;;;;;;;1999.90;999.90;;;;;;;32.57;35.02;95577.19;4975446;28;20188;-59
2022/05/12 08:25:13;;;;;;;1999.90;999.90;;;;;;;32.51;34.75;95585.00;4975343;28;20183;-61
2022/05/12 08:27:39;;;;;;;1999.90;999.90;;;;;;;33.55;32.74;95573.59;4974958;28;20204;-59
2022/05/12 08:30:07;;;;;;;1999.90;999.90;;;;;;;34.83;31.54;95577.53;4975294;28;20190;-60
2022/05/12 08:32:33;;;;;;;1999.90;999.90;;;;;;;35.26;31.01;95559.75;4974843;28;20188;-60
2022/05/12 08:34:59;;;;;;;1999.90;999.90;;;;;;;35.24;31.05;95580.19;4974846;28;20276;-60
2022/05/12 08:37:24;;;;;;;1999.90;999.90;;;;;;;34.72;31.70;95585.56;4975211;28;20181;-61
2022/05/12 08:39:50;;;;;;;1999.90;999.90;;;;;;;34.92;31.48;95581.94;4975047;28;20188;-60
2022/05/12 08:42:45;;;;;;;1999.90;999.90;;;;;;;35.63;30.21;95579.78;4974970;28;20190;-64
2022/05/12 08:45:14;;;;;;;1999.90;999.90;;;;;;;35.16;31.06;95585.09;4975725;28;20228;-63
2022/05/12 08:47:45;;;;;;;1999.90;999.90;;;;;;;34.50;31.78;95586.19;4974833;28;20200;-63
2022/05/12 08:50:32;;;;;;;1999.90;999.90;;;;;;;34.14;32.74;95594.59;4974207;28;20193;-63
2022/05/12 08:53:05;;;;;;;1999.90;999.90;;;;;;;34.22;32.24;95583.31;4975677;28;20231;-63
2022/05/12 08:55:43;;;;;;;1999.90;999.90;;;;;;;34.56;31.77;95587.53;4975266;28;20193;-64
2022/05/12 08:58:23;;;;;;;1999.90;999.90;;;;;;;34.70;31.60;95591.06;4974235;28;20188;-64
2022/05/12 09:01:13;;;;;;;1999.90;999.90;;;;;;;34.38;32.70;95596.31;4975139;28;20196;-58
2022/05/12 09:03:54;;;;;;;1999.90;999.90;;;;;;;34.48;32.06;95595.25;4974785;28;20228;-60
2022/05/12 09:06:27;;;;;;;1999.90;999.90;;;;;;;35.28;30.84;95589.09;4975314;28;20282;-60
2022/05/12 09:09:15;;;;;;;1999.90;999.90;;;;;;;34.56;30.96;95595.31;4974736;28;20220;-60
2022/05/12 09:11:54;;;;;;;1999.90;999.90;;;;;;;34.49;31.41;95593.97;4974914;28;20192;-60
2022/05/12 09:14:48;;;;;;;1999.90;999.90;;;;;;;34.57;31.19;95596.81;4974511;28;20188;-60
2022/05/12 09:17:19;;;;;;;1999.90;999.90;;;;;;;34.90;30.95;95593.88;4974395;28;20232;-60
2022/05/12 09:19:44;;;;;;;1999.90;999.90;;;;;;;35.04;30.80;95600.19;4974822;28;20195;-61
2022/05/12 09:22:10;;;;;;;1999.90;999.90;;;;;;;35.51;30.27;95594.91;4974239;28;20200;-64
2022/05/12 09:24:37;;;;;;;1999.90;999.90;;;;;;;34.68;31.43;95599.38;4973982;28;20188;-64
2022/05/12 09:27:12;;;;;;;1999.90;999.90;;;;;;;35.18;30.39;95599.47;4973760;28;20204;-64
2022/05/12 09:29:49;;;;;;;1999.90;999.90;;;;;;;34.97;31.15;95593.16;4974075;28;20198;-65
2022/05/12 09:32:25;;;;;;;1999.90;999.90;;;;;;;35.01;31.53;95595.63;4974080;28;20223;-64
2022/05/12 09:35:12;;;;;;;1999.90;999.90;;;;;;;35.54;31.10;95585.25;4975346;28;20184;-64
2022/05/12 09:37:41;;;;;;;1999.90;999.90;;;;;;;35.31;31.29;95582.34;4974488;28;20291;-60
2022/05/12 09:40:34;;;;;;;1999.90;999.90;;;;;;;34.95;31.75;95595.03;4974206;28;20189;-61
2022/05/12 09:43:19;;;;;;;1999.90;999.90;;;;;;;34.23;33.22;95593.34;4975079;28;20187;-63
2022/05/12 09:46:00;;;;;;;1999.90;999.90;;;;;;;34.91;31.93;95581.19;4974410;28;20181;-64
2022/05/12 09:48:28;;;;;;;1999.90;999.90;;;;;;;35.76;31.06;95587.41;4974338;28;20215;-65
2022/05/12 09:51:29;;;;;;;1999.90;999.90;;;;;;;35.93;30.45;95577.03;4973730;28;20188;-66
2022/05/12 09:54:30;;;;;;;1999.90;999.90;;;;;;;35.47;32.36;95581.06;4974375;28;20195;-66
2022/05/12 09:57:24;;;;;;;1999.90;999.90;;;;;;;34.27;32.36;95597.34;4974115;28;20251;-64
2022/05/12 09:59:56;;;;;;;1999.90;999.90;;;;;;;35.24;31.83;95587.94;4974439;28;20247;-58
2022/05/12 10:08:19;;;;;;;1999.90;999.90;;;;;;;35.33;31.18;95576.09;4981186;28;20222;-60
2022/05/12 10:10:49;;;;;;;1999.90;999.90;;;;;;;35.66;30.42;95569.38;4980455;28;20192;-59
2022/05/12 10:13:38;;;;;;;1999.90;999.90;;;;;;;34.64;30.78;95567.72;4980673;28;20188;-60
2022/05/12 10:16:04;;;;;;;1999.90;999.90;;;;;;;35.50;30.37;95567.81;4980613;28;20196;-64
2022/05/12 10:18:54;;;;;;;1999.90;999.90;;;;;;;35.11;30.27;95574.66;4980206;28;20235;-62
2022/05/12 10:21:26;;;;;;;1999.90;999.90;;;;;;;34.59;30.44;95569.41;4980448;28;20188;-61
2022/05/12 10:24:09;;;;;;;1999.90;999.90;;;;;;;34.49;30.75;95576.94;4980437;28;20180;-61
2022/05/12 10:26:40;;;;;;;1999.90;999.90;;;;;;;35.22;29.60;95576.41;4980237;28;20184;-62
2022/05/12 10:29:21;;;;;;;1999.90;999.90;;;;;;;34.16;30.66;95586.28;4979877;28;20277;-61
2022/05/12 10:32:13;;;;;;;1999.90;999.90;;;;;;;34.20;30.78;95585.94;4980394;28;20262;-62
2022/05/12 10:34:55;;;;;;;1999.90;999.90;;;;;;;34.46;30.73;95580.09;4980276;28;20191;-59
2022/05/12 10:37:46;;;;;;;1999.90;999.90;;;;;;;34.39;30.12;95580.81;4980108;28;20188;-61
2022/05/12 10:40:17;;;;;;;1999.90;999.90;;;;;;;33.36;31.57;95575.81;4980777;28;20208;-61
2022/05/12 10:43:16;;;;;;;1999.90;999.90;;;;;;;33.06;31.13;95572.59;4980236;28;20196;-60
2022/05/12 10:46:11;;;;;;;1999.90;999.90;;;;;;;33.04;30.81;95568.78;4979673;28;20223;-59
2022/05/12 10:49:07;;;;;;;1999.90;999.90;;;;;;;33.74;30.79;95574.16;4979560;28;20208;-60
2022/05/12 10:51:58;;;;;;;1999.90;999.90;;;;;;;34.08;30.59;95571.25;4980107;28;20180;-60
2022/05/12 10:54:39;;;;;;;1999.90;999.90;;;;;;;33.22;30.83;95571.44;4979745;28;20200;-61
2022/05/12 10:57:21;;;;;;;1999.90;999.90;;;;;;;33.26;31.41;95574.72;4980711;28;20187;-60
2022/05/12 11:00:08;;;;;;;1999.90;999.90;;;;;;;33.09;31.62;95565.84;4979354;28;20188;-60
2022/05/12 11:02:40;;;;;;;1999.90;999.90;;;;;;;33.09;31.18;95568.66;4980002;28;20178;-60
2022/05/12 11:05:27;;;;;;;1999.90;999.90;;;;;;;33.88;30.31;95559.91;4979184;28;20195;-60
2022/05/12 11:08:06;;;;;;;1999.90;999.90;;;;;;;33.74;30.44;95568.47;4979315;28;20228;-60
2022/05/12 11:10:41;;;;;;;1999.90;999.90;;;;;;;33.58;31.12;95566.78;4979354;28;20188;-61
2022/05/12 11:13:24;;;;;;;1999.90;999.90;;;;;;;33.56;31.39;95563.00;4977519;28;20192;-63
2022/05/12 11:15:58;;;;;;;1999.90;999.90;;;;;;;34.10;30.58;95562.19;4976272;28;20180;-62
2022/05/12 11:18:42;;;;;;;1999.90;999.90;;;;;;;32.91;31.51;95549.75;4976175;28;20262;-63
2022/05/12 11:21:30;;;;;;;1999.90;999.90;;;;;;;33.18;31.39;95551.19;4976539;28;20256;-64
2022/05/12 11:23:59;;;;;;;1999.90;999.90;;;;;;;33.67;31.16;95552.16;4976314;28;20280;-63
2022/05/12 11:26:49;;;;;;;1999.90;999.90;;;;;;;32.75;32.55;95548.00;4976339;28;20196;-63